createdAt,value
2016-03-01T00:00:24.310Z,67.94
2016-03-01T00:01:24.280Z,68.04
2016-03-01T00:02:24.299Z,67.94
2016-03-01T00:03:24.318Z,67.46
2016-03-01T00:04:24.320Z,67.56
2016-03-01T00:05:24.339Z,67.65
2016-03-01T00:06:24.357Z,67.46
2016-03-01T00:07:24.374Z,67.56
2016-03-01T00:08:24.377Z,67.37
2016-03-01T00:09:24.396Z,67.65
2016-03-01T00:10:24.414Z,67.56
2016-03-01T00:11:24.432Z,67.37
2016-03-01T00:12:24.467Z,68.04
2016-03-01T00:13:24.470Z,67.56
2016-03-01T00:14:24.472Z,67.94
2016-03-01T00:15:24.521Z,67.56
2016-03-01T00:16:24.492Z,67.37
2016-03-01T00:17:24.543Z,67.94
2016-03-01T00:18:24.529Z,67.75
2016-03-01T00:19:24.548Z,67.37
2016-03-01T00:20:24.566Z,67.37
2016-03-01T00:21:24.570Z,67.65
2016-03-01T00:22:24.634Z,67.75
2016-03-01T00:23:24.606Z,67.56
2016-03-01T00:24:24.609Z,67.37
2016-03-01T00:25:24.627Z,67.27
2016-03-01T00:26:24.645Z,67.56
2016-03-01T00:27:24.647Z,67.56
2016-03-01T00:28:24.681Z,67.37
2016-03-01T00:29:24.699Z,67.56
2016-03-01T00:30:24.705Z,67.75
2016-03-01T00:31:24.583Z,67.85
2016-03-01T00:32:24.741Z,67.46
2016-03-01T00:33:24.744Z,67.65
2016-03-01T00:34:24.763Z,67.94
2016-03-01T00:35:24.781Z,67.65
2016-03-01T00:36:24.784Z,67.56
2016-03-01T00:37:24.818Z,67.65
2016-03-01T00:38:24.821Z,67.94
2016-03-01T00:39:24.838Z,67.27
2016-03-01T00:40:24.857Z,67.08
2016-03-01T00:41:24.860Z,67.94
2016-03-01T00:42:24.863Z,67.18
2016-03-01T00:43:24.896Z,67.27
2016-03-01T00:44:24.900Z,67.27
2016-03-01T00:45:24.918Z,67.27
2016-03-01T00:46:24.796Z,67.37
2016-03-01T00:47:24.954Z,67.75
2016-03-01T00:48:24.957Z,67.08
2016-03-01T00:49:24.990Z,67.37
2016-03-01T00:50:24.993Z,67.18
2016-03-01T00:51:25.012Z,67.18
2016-03-01T00:52:25.049Z,67.18
2016-03-01T00:53:25.037Z,67.27
2016-03-01T00:54:25.055Z,67.37
2016-03-01T00:55:25.073Z,67.18
2016-03-01T00:56:25.076Z,67.46
2016-03-01T00:57:25.094Z,67.85
2016-03-01T00:58:25.113Z,68.23
2016-03-01T00:59:25.132Z,67.56
2016-03-01T01:00:25.134Z,67.18
2016-03-01T01:01:25.151Z,68.23
2016-03-01T01:02:25.171Z,67.37
2016-03-01T01:03:25.174Z,68.04
2016-03-01T01:04:25.207Z,67.56
2016-03-01T01:05:25.210Z,68.13
2016-03-01T01:06:25.228Z,68.13
2016-03-01T01:07:25.246Z,68.04
2016-03-01T01:08:25.249Z,67.56
2016-03-01T01:09:25.284Z,67.46
2016-03-01T01:10:25.301Z,67.94
2016-03-01T01:11:25.304Z,67.56
2016-03-01T01:12:25.322Z,67.37
2016-03-01T01:13:25.341Z,67.27
2016-03-01T01:14:25.343Z,67.27
2016-03-01T01:15:25.361Z,67.75
2016-03-01T01:16:25.380Z,67.75
2016-03-01T01:17:25.383Z,67.37
2016-03-01T01:18:25.400Z,67.37
2016-03-01T01:19:25.419Z,67.75
2016-03-01T01:20:25.437Z,67.37
2016-03-01T01:21:25.456Z,67.56
2016-03-01T01:22:25.459Z,67.56
2016-03-01T01:23:25.477Z,68.04
2016-03-01T01:24:25.496Z,67.65
2016-03-01T01:25:25.498Z,67.56
2016-03-01T01:26:25.547Z,68.04
2016-03-01T01:27:25.550Z,67.27
2016-03-01T01:28:25.552Z,67.37
2016-03-01T01:29:25.399Z,67.56
2016-03-01T01:30:25.589Z,67.37
2016-03-01T01:31:25.592Z,67.56
2016-03-01T01:32:25.610Z,67.27
2016-03-01T01:33:25.613Z,67.27
2016-03-01T01:34:25.663Z,67.37
2016-03-01T01:35:25.665Z,67.46
2016-03-01T01:36:25.684Z,67.65
2016-03-01T01:37:25.686Z,67.56
2016-03-01T01:38:25.690Z,67.56
2016-03-01T01:39:25.707Z,68.13
2016-03-01T01:40:25.742Z,67.56
2016-03-01T01:41:25.760Z,67.27
2016-03-01T01:42:25.762Z,67.18
2016-03-01T01:43:25.765Z,67.37
2016-03-01T01:44:25.783Z,67.27
2016-03-01T01:45:25.802Z,68.13
2016-03-01T01:46:25.867Z,67.37
2016-03-01T01:47:25.823Z,68.04
2016-03-01T01:48:25.841Z,67.56
2016-03-01T01:49:25.891Z,67.37
2016-03-01T01:50:25.861Z,67.27
2016-03-01T01:51:25.880Z,67.18
2016-03-01T01:52:25.899Z,67.18
2016-03-01T01:53:25.917Z,67.18
2016-03-01T01:54:25.935Z,68.13
2016-03-01T01:55:25.954Z,67.08
2016-03-01T01:56:25.956Z,67.18
2016-03-01T01:57:25.991Z,67.18
2016-03-01T01:58:25.993Z,67.18
2016-03-01T01:59:25.996Z,67.75
2016-03-01T02:00:26.013Z,67.18
2016-03-01T02:01:26.032Z,67.27
2016-03-01T02:02:26.051Z,67.18
2016-03-01T02:03:26.069Z,67.18
2016-03-01T02:04:26.087Z,67.37
2016-03-01T02:05:26.090Z,68.32
2016-03-01T02:06:26.109Z,68.13
2016-03-01T02:07:26.112Z,67.27
2016-03-01T02:08:26.129Z,67.18
2016-03-01T02:09:26.148Z,67.18
2016-03-01T02:10:26.150Z,67.27
2016-03-01T02:11:26.168Z,67.46
2016-03-01T02:12:26.203Z,67.18
2016-03-01T02:13:26.206Z,67.27
2016-03-01T02:14:26.239Z,67.27
2016-03-01T02:15:26.226Z,67.27
2016-03-01T02:16:26.260Z,67.27
2016-03-01T02:17:26.263Z,67.65
2016-03-01T02:18:26.266Z,67.65
2016-03-01T02:19:26.283Z,67.46
2016-03-01T02:20:28.021Z,67.18
2016-03-01T02:21:26.317Z,67.08
2016-03-01T02:22:26.349Z,67.27
2016-03-01T02:23:26.995Z,67.56
2016-03-01T02:24:26.649Z,67.37
2016-03-01T02:25:26.401Z,67.37
2016-03-01T02:26:26.389Z,67.18
2016-03-01T02:27:26.407Z,67.56
2016-03-01T02:28:26.425Z,68.04
2016-03-01T02:29:26.428Z,68.04
2016-03-01T02:30:26.463Z,67.18
2016-03-01T02:31:26.465Z,68.04
2016-03-01T02:32:26.468Z,67.18
2016-03-01T02:33:26.501Z,67.18
2016-03-01T02:34:26.535Z,67.46
2016-03-01T02:35:26.522Z,67.18
2016-03-01T02:36:26.524Z,67.27
2016-03-01T02:37:26.543Z,67.18
2016-03-01T02:38:26.561Z,67.18
2016-03-01T02:39:26.580Z,67.56
2016-03-01T02:40:26.582Z,67.56
2016-03-01T02:41:26.617Z,67.37
2016-03-01T02:42:26.620Z,67.37
2016-03-01T02:43:26.637Z,67.46
2016-03-01T02:44:26.656Z,67.37
2016-03-01T02:45:26.658Z,67.37
2016-03-01T02:46:26.676Z,67.37
2016-03-01T02:47:26.679Z,67.37
2016-03-01T02:48:26.698Z,67.27
2016-03-01T02:49:26.716Z,67.05
2016-03-01T02:50:26.750Z,67.56
2016-03-01T02:51:26.753Z,67.27
2016-03-01T02:52:26.771Z,67.37
2016-03-01T02:53:26.789Z,67.46
2016-03-01T02:54:26.808Z,67.46
2016-03-01T02:55:26.810Z,67.08
2016-03-01T02:56:26.813Z,67.85
2016-03-01T02:57:26.831Z,67.27
2016-03-01T02:58:26.850Z,67.65
2016-03-01T02:59:26.868Z,67.56
2016-03-01T03:00:26.871Z,67.27
2016-03-01T03:01:26.888Z,67.27
2016-03-01T03:02:26.907Z,67.65
2016-03-01T03:03:26.941Z,67.56
2016-03-01T03:04:26.944Z,67.37
2016-03-01T03:05:26.962Z,67.37
2016-03-01T03:06:26.965Z,67.08
2016-03-01T03:07:26.983Z,67.46
2016-03-01T03:08:27.002Z,67.56
2016-03-01T03:09:27.004Z,67.18
2016-03-01T03:10:27.023Z,67.85
2016-03-01T03:11:27.040Z,67.46
2016-03-01T03:12:27.075Z,67.75
2016-03-01T03:13:27.062Z,66.89
2016-03-01T03:14:27.080Z,66.99
2016-03-01T03:15:27.098Z,67.37
2016-03-01T03:16:27.132Z,66.89
2016-03-01T03:17:27.134Z,67.08
2016-03-01T03:18:27.137Z,67.08
2016-03-01T03:19:27.156Z,67.46
2016-03-01T03:20:27.174Z,67.08
2016-03-01T03:21:27.177Z,66.89
2016-03-01T03:22:27.195Z,66.89
2016-03-01T03:23:27.230Z,66.89
2016-03-01T03:24:27.232Z,66.71
2016-03-01T03:25:27.251Z,66.86
2016-03-01T03:26:27.253Z,66.89
2016-03-01T03:27:27.272Z,66.58
2016-03-01T03:28:27.289Z,66.61
2016-03-01T03:29:27.308Z,66.58
2016-03-01T03:30:27.310Z,66.61
2016-03-01T03:31:27.329Z,66.58
2016-03-01T03:32:27.394Z,67.14
2016-03-01T03:33:27.382Z,66.86
2016-03-01T03:34:27.384Z,66.86
2016-03-01T03:35:27.387Z,66.58
2016-03-01T03:36:27.405Z,66.39
2016-03-01T03:37:27.438Z,66.61
2016-03-01T03:38:27.427Z,66.39
2016-03-01T03:39:27.444Z,66.8
2016-03-01T03:40:27.447Z,66.96
2016-03-01T03:41:27.465Z,66.58
2016-03-01T03:42:27.499Z,66.77
2016-03-01T03:43:27.502Z,66.33
2016-03-01T03:44:27.521Z,66.52
2016-03-01T03:45:27.539Z,66.67
2016-03-01T03:46:27.542Z,66.67
2016-03-01T03:47:27.559Z,66.67
2016-03-01T03:48:27.609Z,66.39
2016-03-01T03:49:27.580Z,66.58
2016-03-01T03:50:27.599Z,66.39
2016-03-01T03:51:27.820Z,67.14
2016-03-01T03:52:27.636Z,67.05
2016-03-01T03:53:27.638Z,67.05
2016-03-01T03:54:27.656Z,66.96
2016-03-01T03:55:27.690Z,66.39
2016-03-01T03:56:27.678Z,66.48
2016-03-01T03:57:27.697Z,66.58
2016-03-01T03:58:27.730Z,66.58
2016-03-01T03:59:27.732Z,66.77
2016-03-01T04:00:27.750Z,66.86
2016-03-01T04:01:27.753Z,66.77
2016-03-01T04:02:27.772Z,67.05
2016-03-01T04:03:27.791Z,66.86
2016-03-01T04:04:27.808Z,66.48
2016-03-01T04:05:27.686Z,67.24
2016-03-01T04:06:27.829Z,66.39
2016-03-01T04:07:27.848Z,66.2
2016-03-01T04:08:27.865Z,66.86
2016-03-01T04:09:27.869Z,66.48
2016-03-01T04:10:27.882Z,66.48
2016-03-01T04:11:27.901Z,66.96
2016-03-01T04:12:27.919Z,66.48
2016-03-01T04:13:27.937Z,66.77
2016-03-01T04:14:27.940Z,66.77
2016-03-01T04:15:27.958Z,66.58
2016-03-01T04:16:27.976Z,66.96
2016-03-01T04:17:27.995Z,66.96
2016-03-01T04:18:28.029Z,66.96
2016-03-01T04:19:28.015Z,67.05
2016-03-01T04:20:28.035Z,66.96
2016-03-01T04:21:28.053Z,66.67
2016-03-01T04:22:28.056Z,66.67
2016-03-01T04:23:28.073Z,66.58
2016-03-01T04:24:28.092Z,66.48
2016-03-01T04:25:28.110Z,66.29
2016-03-01T04:26:28.129Z,66.58
2016-03-01T04:27:28.131Z,66.1
2016-03-01T04:28:28.212Z,66.1
2016-03-01T04:29:28.167Z,66.67
2016-03-01T04:30:28.170Z,66.58
2016-03-01T04:31:28.205Z,66.2
2016-03-01T04:32:28.208Z,66.77
2016-03-01T04:33:28.226Z,66.77
2016-03-01T04:34:28.244Z,66.86
2016-03-01T04:35:28.247Z,66.77
2016-03-01T04:36:28.264Z,66.39
2016-03-01T04:37:28.283Z,66.86
2016-03-01T04:38:28.286Z,66.58
2016-03-01T04:39:28.335Z,67.43
2016-03-01T04:40:28.307Z,66.39
2016-03-01T04:41:28.341Z,66.29
2016-03-01T04:42:28.359Z,66.67
2016-03-01T04:43:28.377Z,66.29
2016-03-01T04:44:28.380Z,66.77
2016-03-01T04:45:28.399Z,66.67
2016-03-01T04:46:28.416Z,66.39
2016-03-01T04:47:28.419Z,67.05
2016-03-01T04:48:28.437Z,66.96
2016-03-01T04:49:28.440Z,66.96
2016-03-01T04:50:28.473Z,67.05
2016-03-01T04:51:28.477Z,66.86
2016-03-01T04:52:28.479Z,66.96
2016-03-01T04:53:28.498Z,66.96
2016-03-01T04:54:28.531Z,66.96
2016-03-01T04:55:28.534Z,66.58
2016-03-01T04:56:28.537Z,66.86
2016-03-01T04:57:28.571Z,66.86
2016-03-01T04:58:28.574Z,66.48
2016-03-01T04:59:28.592Z,66.29
2016-03-01T05:00:28.595Z,66.77
2016-03-01T05:01:28.613Z,66.67
2016-03-01T05:02:28.631Z,66.58
2016-03-01T05:03:28.633Z,66.39
2016-03-01T05:04:28.653Z,66.67
2016-03-01T05:05:28.671Z,66.96
2016-03-01T05:06:28.689Z,66.77
2016-03-01T05:07:28.692Z,67.14
2016-03-01T05:08:28.741Z,67.43
2016-03-01T05:09:28.728Z,67.43
2016-03-01T05:10:28.746Z,67.14
2016-03-01T05:11:28.765Z,67.52
2016-03-01T05:12:28.768Z,66.96
2016-03-01T05:13:28.786Z,66.67
2016-03-01T05:14:28.820Z,67.62
2016-03-01T05:15:28.807Z,66.86
2016-03-01T05:16:28.685Z,67.05
2016-03-01T05:17:28.844Z,66.96
2016-03-01T05:18:28.845Z,67.71
2016-03-01T05:19:28.868Z,67.52
2016-03-01T05:20:28.859Z,67.52
2016-03-01T05:21:28.851Z,67.33
2016-03-01T05:22:28.859Z,67.05
2016-03-01T05:23:28.882Z,67.24
2016-03-01T05:24:28.880Z,67.24
2016-03-01T05:25:28.894Z,67.33
2016-03-01T05:26:28.909Z,67.52
2016-03-01T05:27:28.908Z,67.52
2016-03-01T05:28:28.921Z,67.62
2016-03-01T05:29:28.923Z,67.43
2016-03-01T05:30:28.940Z,67.71
2016-03-01T05:31:28.956Z,67.24
2016-03-01T05:32:28.973Z,67.05
2016-03-01T05:33:28.974Z,67.05
2016-03-01T05:34:28.992Z,67.05
2016-03-01T05:35:29.010Z,67.24
2016-03-01T05:36:29.012Z,67.43
2016-03-01T05:37:29.030Z,67.43
2016-03-01T05:38:29.048Z,67.05
2016-03-01T05:39:29.065Z,67.43
2016-03-01T05:40:29.085Z,67.52
2016-03-01T05:41:29.087Z,67.62
2016-03-01T05:42:29.104Z,66.77
2016-03-01T05:43:29.122Z,66.86
2016-03-01T05:44:28.969Z,66.48
2016-03-01T05:45:29.144Z,66.96
2016-03-01T05:46:29.162Z,66.39
2016-03-01T05:47:29.180Z,66.48
2016-03-01T05:48:29.245Z,66.58
2016-03-01T05:49:29.201Z,66.58
2016-03-01T05:50:29.219Z,66.96
2016-03-01T05:51:29.237Z,67.05
2016-03-01T05:52:29.240Z,67.43
2016-03-01T05:53:29.258Z,67.33
2016-03-01T05:54:29.308Z,67.33
2016-03-01T05:55:29.280Z,67.52
2016-03-01T05:56:29.298Z,67.05
2016-03-01T05:57:29.315Z,66.96
2016-03-01T05:58:29.335Z,67.52
2016-03-01T05:59:29.337Z,67.52
2016-03-01T06:00:29.356Z,67.43
2016-03-01T06:01:29.374Z,67.33
2016-03-01T06:02:29.376Z,67.43
2016-03-01T06:03:29.395Z,67.24
2016-03-01T06:04:29.413Z,67.33
2016-03-01T06:05:29.431Z,67.05
2016-03-01T06:06:29.434Z,67.14
2016-03-01T06:07:29.453Z,66.96
2016-03-01T06:08:29.470Z,66.86
2016-03-01T06:09:29.489Z,67.33
2016-03-01T06:10:29.491Z,66.58
2016-03-01T06:11:29.511Z,67.05
2016-03-01T06:12:29.528Z,66.58
2016-03-01T06:13:29.531Z,66.86
2016-03-01T06:14:29.550Z,67.71
2016-03-01T06:15:29.567Z,66.58
2016-03-01T06:16:29.586Z,66.86
2016-03-01T06:17:29.588Z,66.48
2016-03-01T06:18:29.622Z,66.67
2016-03-01T06:19:29.625Z,66.67
2016-03-01T06:20:29.644Z,67.52
2016-03-01T06:21:29.646Z,67.05
2016-03-01T06:22:29.665Z,67.05
2016-03-01T06:23:29.682Z,67.05
2016-03-01T06:24:29.702Z,67.05
2016-03-01T06:25:29.704Z,67.43
2016-03-01T06:26:29.722Z,67.14
2016-03-01T06:27:29.741Z,67.05
2016-03-01T06:28:29.759Z,67.05
2016-03-01T06:29:29.762Z,67.14
2016-03-01T06:30:29.780Z,67.43
2016-03-01T06:31:29.798Z,67.24
2016-03-01T06:32:29.817Z,67.43
2016-03-01T06:33:29.820Z,67.33
2016-03-01T06:34:29.837Z,67.33
2016-03-01T06:35:29.840Z,67.14
2016-03-01T06:36:29.858Z,67.05
2016-03-01T06:37:29.877Z,67.52
2016-03-01T06:38:29.895Z,67.24
2016-03-01T06:39:29.898Z,67.81
2016-03-01T06:40:29.931Z,67.81
2016-03-01T06:41:29.934Z,67.43
2016-03-01T06:42:29.953Z,68.1
2016-03-01T06:43:29.956Z,67.33
2016-03-01T06:44:29.974Z,67.33
2016-03-01T06:45:29.992Z,67.33
2016-03-01T06:46:29.995Z,67.62
2016-03-01T06:47:30.013Z,67.43
2016-03-01T06:48:30.031Z,67.43
2016-03-01T06:49:30.049Z,67.43
2016-03-01T06:50:30.052Z,67.14
2016-03-01T06:51:30.086Z,67.24
2016-03-01T06:52:30.088Z,67.05
2016-03-01T06:53:30.107Z,67.81
2016-03-01T06:54:30.141Z,67.71
2016-03-01T06:55:30.129Z,67.62
2016-03-01T06:56:30.147Z,67.52
2016-03-01T06:57:30.149Z,67.52
2016-03-01T06:58:30.168Z,67.9
2016-03-01T06:59:30.186Z,67.24
2016-03-01T07:00:30.204Z,67.52
2016-03-01T07:01:30.207Z,67.33
2016-03-01T07:02:30.226Z,68
2016-03-01T07:03:30.244Z,67.14
2016-03-01T07:04:30.262Z,67.24
2016-03-01T07:05:30.265Z,67.52
2016-03-01T07:06:30.283Z,67.33
2016-03-01T07:07:30.301Z,66.58
2016-03-01T07:08:30.304Z,67.43
2016-03-01T07:09:30.323Z,67.52
2016-03-01T07:10:30.340Z,67.43
2016-03-01T07:11:30.359Z,67.33
2016-03-01T07:12:30.361Z,67.33
2016-03-01T07:13:30.381Z,67.43
2016-03-01T07:14:30.398Z,67.43
2016-03-01T07:15:30.417Z,67.52
2016-03-01T07:16:30.450Z,67.52
2016-03-01T07:17:30.438Z,67.24
2016-03-01T07:18:30.472Z,67.43
2016-03-01T07:19:30.458Z,67.43
2016-03-01T07:20:30.477Z,67.33
2016-03-01T07:21:30.495Z,67.52
2016-03-01T07:22:30.514Z,67.24
2016-03-01T07:23:30.516Z,67.43
2016-03-01T07:24:30.535Z,67.43
2016-03-01T07:25:30.584Z,67.43
2016-03-01T07:26:30.588Z,67.05
2016-03-01T07:27:30.574Z,67.05
2016-03-01T07:28:30.593Z,67.33
2016-03-01T07:29:30.610Z,67.62
2016-03-01T07:30:30.613Z,67.43
2016-03-01T07:31:30.646Z,67.62
2016-03-01T07:32:30.649Z,67.62
2016-03-01T07:33:30.684Z,67.24
2016-03-01T07:34:30.671Z,67.14
2016-03-01T07:35:30.689Z,68.1
2016-03-01T07:36:30.707Z,67.24
2016-03-01T07:37:30.710Z,67.33
2016-03-01T07:38:30.728Z,66.96
2016-03-01T07:39:30.747Z,68.1
2016-03-01T07:40:30.765Z,67.43
2016-03-01T07:41:30.768Z,67.14
2016-03-01T07:42:30.802Z,67.9
2016-03-01T07:43:30.804Z,67.43
2016-03-01T07:44:30.822Z,67.62
2016-03-01T07:45:30.825Z,67.33
2016-03-01T07:46:30.844Z,67.33
2016-03-01T07:47:30.862Z,67.43
2016-03-01T07:48:30.865Z,68
2016-03-01T07:49:30.883Z,67.24
2016-03-01T07:50:30.901Z,67.24
2016-03-01T07:51:30.920Z,66.96
2016-03-01T07:52:30.922Z,67.24
2016-03-01T07:53:30.956Z,67.33
2016-03-01T07:54:30.958Z,67.14
2016-03-01T07:55:30.977Z,67.33
2016-03-01T07:56:30.996Z,67.05
2016-03-01T07:57:30.998Z,67.52
2016-03-01T07:58:31.017Z,67.43
2016-03-01T07:59:31.082Z,67.62
2016-03-01T08:00:31.053Z,67.24
2016-03-01T08:01:31.056Z,68.1
2016-03-01T08:02:31.074Z,67.24
2016-03-01T08:03:31.093Z,67.24
2016-03-01T08:04:31.095Z,67.14
2016-03-01T08:05:31.113Z,67.9
2016-03-01T08:06:31.132Z,67.14
2016-03-01T08:07:31.150Z,68.19
2016-03-01T08:08:31.168Z,67.33
2016-03-01T08:09:31.171Z,67.52
2016-03-01T08:10:31.190Z,67.71
2016-03-01T08:11:31.208Z,67.14
2016-03-01T08:12:31.320Z,67.24
2016-03-01T08:13:31.229Z,68.29
2016-03-01T08:14:31.247Z,67.24
2016-03-01T08:15:31.265Z,67.24
2016-03-01T08:16:31.267Z,68.19
2016-03-01T08:17:31.287Z,67.24
2016-03-01T08:18:31.305Z,67.43
2016-03-01T08:19:31.386Z,67.52
2016-03-01T08:20:31.404Z,67.52
2016-03-01T08:21:31.344Z,67.81
2016-03-01T08:22:31.347Z,67.9
2016-03-01T08:23:31.365Z,68.57
2016-03-01T08:24:31.383Z,68.29
2016-03-01T08:25:31.402Z,68.38
2016-03-01T08:26:31.404Z,68.19
2016-03-01T08:27:31.438Z,68.29
2016-03-01T08:28:31.457Z,68.38
2016-03-01T08:29:31.459Z,68.38
2016-03-01T08:30:31.462Z,68.38
2016-03-01T08:31:31.496Z,68.29
2016-03-01T08:32:31.499Z,68.29
2016-03-01T08:33:31.501Z,68.76
2016-03-01T08:34:31.520Z,68.57
2016-03-01T08:35:31.538Z,68.48
2016-03-01T08:36:31.557Z,68.29
2016-03-01T08:37:31.574Z,68.89
2016-03-01T08:38:31.576Z,69.04
2016-03-01T08:39:31.596Z,68.57
2016-03-01T08:40:31.614Z,68.76
2016-03-01T08:41:31.617Z,68.6
2016-03-01T08:42:31.651Z,69.55
2016-03-01T08:43:31.653Z,68.98
2016-03-01T08:44:31.672Z,68.85
2016-03-01T08:45:31.674Z,68.85
2016-03-01T08:46:31.693Z,68.98
2016-03-01T08:47:31.726Z,69.08
2016-03-01T08:48:31.728Z,68.41
2016-03-01T08:49:31.731Z,68.1
2016-03-01T08:50:31.750Z,68.29
2016-03-01T08:51:31.784Z,69.17
2016-03-01T08:52:31.787Z,68.29
2016-03-01T08:53:31.790Z,68.6
2016-03-01T08:54:31.808Z,68.41
2016-03-01T08:55:31.810Z,68.95
2016-03-01T08:56:31.830Z,68.95
2016-03-01T08:57:31.847Z,68.79
2016-03-01T08:58:31.866Z,68.95
2016-03-01T08:59:31.883Z,69.61
2016-03-01T09:00:31.902Z,69.61
2016-03-01T09:01:31.905Z,68.76
2016-03-01T09:02:31.938Z,68.85
2016-03-01T09:03:31.957Z,68.98
2016-03-01T09:04:31.960Z,68.79
2016-03-01T09:05:31.978Z,69.04
2016-03-01T09:06:31.996Z,68.29
2016-03-01T09:07:31.999Z,68.38
2016-03-01T09:08:32.001Z,68.57
2016-03-01T09:09:32.020Z,68.29
2016-03-01T09:10:32.037Z,68.29
2016-03-01T09:11:32.057Z,68.57
2016-03-01T09:12:32.059Z,67.9
2016-03-01T09:13:32.109Z,68
2016-03-01T09:14:32.096Z,68
2016-03-01T09:15:32.114Z,67.81
2016-03-01T09:16:32.117Z,67.9
2016-03-01T09:17:32.135Z,67.81
2016-03-01T09:18:32.154Z,68.29
2016-03-01T09:19:32.156Z,68.38
2016-03-01T09:20:32.190Z,68.66
2016-03-01T09:21:32.192Z,68
2016-03-01T09:22:32.211Z,68.29
2016-03-01T09:23:32.214Z,68.38
2016-03-01T09:24:32.247Z,69.13
2016-03-01T09:25:32.251Z,69.04
2016-03-01T09:26:32.269Z,68.76
2016-03-01T09:27:32.271Z,68.76
2016-03-01T09:28:32.290Z,68.85
2016-03-01T09:29:32.308Z,68.85
2016-03-01T09:30:32.327Z,68.95
2016-03-01T09:31:32.329Z,68.95
2016-03-01T09:32:32.347Z,68.95
2016-03-01T09:33:32.366Z,69.04
2016-03-01T09:34:32.368Z,69.04
2016-03-01T09:35:32.387Z,69.23
2016-03-01T09:36:32.421Z,69.42
2016-03-01T09:37:32.424Z,69.23
2016-03-01T09:38:32.442Z,69.04
2016-03-01T09:39:32.445Z,69.23
2016-03-01T09:40:32.479Z,69.04
2016-03-01T09:41:32.512Z,69.23
2016-03-01T09:42:32.483Z,68.6
2016-03-01T09:43:32.580Z,69.04
2016-03-01T09:44:32.520Z,69.23
2016-03-01T09:45:32.554Z,68.29
2016-03-01T09:46:32.556Z,68.29
2016-03-01T09:47:32.560Z,68.48
2016-03-01T09:48:32.578Z,68
2016-03-01T09:49:32.596Z,68.19
2016-03-01T09:50:32.677Z,68.76
2016-03-01T09:51:32.617Z,68.19
2016-03-01T09:52:32.635Z,68.38
2016-03-01T09:53:32.653Z,68.1
2016-03-01T09:54:32.672Z,68.85
2016-03-01T09:55:32.675Z,68.1
2016-03-01T09:56:32.693Z,68.1
2016-03-01T09:57:32.712Z,67.81
2016-03-01T09:58:32.714Z,67.81
2016-03-01T09:59:32.733Z,67.71
2016-03-01T10:00:32.751Z,68.48
2016-03-01T10:01:32.754Z,68.29
2016-03-01T10:02:32.772Z,68.38
2016-03-01T10:03:32.790Z,68.29
2016-03-01T10:04:32.808Z,68.57
2016-03-01T10:05:32.811Z,67.71
2016-03-01T10:06:32.846Z,67.81
2016-03-01T10:07:32.848Z,67.71
2016-03-01T10:08:32.866Z,67.71
2016-03-01T10:09:32.885Z,67.9
2016-03-01T10:10:32.887Z,67.43
2016-03-01T10:11:32.906Z,67.52
2016-03-01T10:12:32.924Z,67.52
2016-03-01T10:13:32.926Z,67.52
2016-03-01T10:14:32.960Z,67.33
2016-03-01T10:15:32.962Z,67.52
2016-03-01T10:16:32.981Z,67.81
2016-03-01T10:17:32.984Z,68
2016-03-01T10:18:33.002Z,67.71
2016-03-01T10:19:33.021Z,68
2016-03-01T10:20:33.039Z,68.19
2016-03-01T10:21:33.057Z,67.9
2016-03-01T10:22:33.060Z,68.19
2016-03-01T10:23:33.078Z,67.9
2016-03-01T10:24:33.097Z,68.29
2016-03-01T10:25:33.114Z,68.41
2016-03-01T10:26:33.117Z,68.66
2016-03-01T10:27:33.152Z,68.19
2016-03-01T10:28:33.154Z,68.32
2016-03-01T10:29:33.172Z,68.1
2016-03-01T10:30:33.175Z,68
2016-03-01T10:31:33.194Z,67.56
2016-03-01T10:32:33.212Z,67.56
2016-03-01T10:33:33.230Z,67.27
2016-03-01T10:34:33.233Z,67.56
2016-03-01T10:35:33.251Z,67.27
2016-03-01T10:36:33.269Z,67.37
2016-03-01T10:37:33.271Z,67.94
2016-03-01T10:38:33.291Z,67.27
2016-03-01T10:39:33.309Z,67.75
2016-03-01T10:40:33.327Z,67.94
2016-03-01T10:41:33.330Z,67.65
2016-03-01T10:42:33.364Z,67.75
2016-03-01T10:43:33.367Z,67.75
2016-03-01T10:44:33.385Z,67.56
2016-03-01T10:45:33.388Z,67.65
2016-03-01T10:46:33.406Z,67.56
2016-03-01T10:47:33.423Z,67.56
2016-03-01T10:48:33.443Z,67.56
2016-03-01T10:49:33.445Z,67.65
2016-03-01T10:50:33.464Z,67.85
2016-03-01T10:51:33.482Z,67.56
2016-03-01T10:52:33.500Z,67.94
2016-03-01T10:53:33.502Z,67.65
2016-03-01T10:54:33.521Z,68.04
2016-03-01T10:55:33.539Z,67.94
2016-03-01T10:56:33.558Z,67.46
2016-03-01T10:57:33.560Z,67.37
2016-03-01T10:58:33.578Z,67.37
2016-03-01T10:59:33.597Z,67.85
2016-03-01T11:00:33.615Z,67.37
2016-03-01T11:01:33.634Z,67.46
2016-03-01T11:02:33.949Z,67.18
2016-03-01T11:03:33.655Z,67.08
2016-03-01T11:04:33.673Z,67.56
2016-03-01T11:05:33.676Z,67.37
2016-03-01T11:06:33.694Z,67.37
2016-03-01T11:07:33.712Z,67.08
2016-03-01T11:08:33.715Z,67.37
2016-03-01T11:09:33.749Z,67.27
2016-03-01T11:10:33.752Z,67.27
2016-03-01T11:11:33.785Z,67.27
2016-03-01T11:12:33.788Z,67.46
2016-03-01T11:13:33.807Z,67.37
2016-03-01T11:14:33.825Z,67.18
2016-03-01T11:15:33.828Z,66.71
2016-03-01T11:16:33.846Z,66.99
2016-03-01T11:17:33.864Z,66.61
2016-03-01T11:18:33.867Z,66.71
2016-03-01T11:19:33.884Z,66.99
2016-03-01T11:20:33.904Z,66.71
2016-03-01T11:21:33.922Z,66.42
2016-03-01T11:22:33.940Z,66.99
2016-03-01T11:23:33.958Z,66.52
2016-03-01T11:24:33.961Z,67.08
2016-03-01T11:25:33.979Z,66.8
2016-03-01T11:26:33.998Z,66.8
2016-03-01T11:27:34.000Z,66.42
2016-03-01T11:28:34.019Z,66.52
2016-03-01T11:29:34.036Z,66.33
2016-03-01T11:30:34.055Z,66.55
2016-03-01T11:31:34.089Z,66.36
2016-03-01T11:32:34.076Z,66.64
2016-03-01T11:33:34.095Z,66.27
2016-03-01T11:34:34.113Z,66.08
2016-03-01T11:35:34.146Z,66.08
2016-03-01T11:36:34.134Z,66.74
2016-03-01T11:37:34.152Z,66.64
2016-03-01T11:38:34.171Z,66.27
2016-03-01T11:39:34.188Z,65.98
2016-03-01T11:40:34.207Z,66.46
2016-03-01T11:41:34.210Z,65.79
2016-03-01T11:42:34.228Z,65.88
2016-03-01T11:43:34.263Z,65.98
2016-03-01T11:44:34.265Z,65.88
2016-03-01T11:45:34.284Z,65.88
2016-03-01T11:46:34.286Z,65.79
2016-03-01T11:47:34.304Z,65.41
2016-03-01T11:48:34.323Z,65.88
2016-03-01T11:49:34.340Z,65.79
2016-03-01T11:50:34.343Z,65.79
2016-03-01T11:51:34.409Z,65.98
2016-03-01T11:52:34.380Z,65.79
2016-03-01T11:53:34.399Z,66.17
2016-03-01T11:54:34.401Z,65.6
2016-03-01T11:55:34.420Z,66.08
2016-03-01T11:56:34.438Z,66.08
2016-03-01T11:57:34.472Z,65.69
2016-03-01T11:58:34.474Z,65.79
2016-03-01T11:59:34.477Z,65.5
2016-03-01T12:00:34.494Z,65.88
2016-03-01T12:01:34.514Z,65.41
2016-03-01T12:02:34.547Z,65.5
2016-03-01T12:03:34.566Z,65.5
2016-03-01T12:04:34.553Z,65.69
2016-03-01T12:05:34.571Z,65.6
2016-03-01T12:06:34.591Z,65.41
2016-03-01T12:07:34.609Z,65.22
2016-03-01T12:08:34.611Z,65.31
2016-03-01T12:09:34.630Z,65.41
2016-03-01T12:10:34.647Z,64.75
2016-03-01T12:11:34.667Z,64.46
2016-03-01T12:12:34.685Z,65.31
2016-03-01T12:13:34.735Z,64.4
2016-03-01T12:14:34.706Z,64.49
2016-03-01T12:15:34.724Z,64.3
2016-03-01T12:16:34.743Z,64.02
2016-03-01T12:17:34.777Z,63.73
2016-03-01T12:18:34.763Z,63.54
2016-03-01T12:19:34.782Z,63.92
2016-03-01T12:20:34.815Z,64.02
2016-03-01T12:21:34.819Z,64.11
2016-03-01T12:22:34.837Z,63.54
2016-03-01T12:23:34.855Z,64.02
2016-03-01T12:24:34.890Z,63.92
2016-03-01T12:25:34.876Z,63.83
2016-03-01T12:26:34.925Z,63.45
2016-03-01T12:27:34.959Z,63.54
2016-03-01T12:28:34.915Z,63.35
2016-03-01T12:29:34.964Z,63.26
2016-03-01T12:30:34.951Z,63.54
2016-03-01T12:31:34.970Z,63.17
2016-03-01T12:32:35.067Z,63.45
2016-03-01T12:33:35.007Z,62.97
2016-03-01T12:34:35.041Z,63.26
2016-03-01T12:35:35.028Z,63.64
2016-03-01T12:36:35.046Z,62.78
2016-03-01T12:37:35.065Z,62.78
2016-03-01T12:38:35.083Z,63.07
2016-03-01T12:39:35.100Z,63.17
2016-03-01T12:40:35.136Z,63.07
2016-03-01T12:41:35.122Z,63.57
2016-03-01T12:42:35.141Z,63.73
2016-03-01T12:43:35.159Z,63.07
2016-03-01T12:44:35.194Z,62.81
2016-03-01T12:45:35.196Z,62.88
2016-03-01T12:46:35.214Z,62.78
2016-03-01T12:47:35.248Z,62.72
2016-03-01T12:48:35.235Z,62.62
2016-03-01T12:49:35.253Z,62.72
2016-03-01T12:50:35.271Z,62.62
2016-03-01T12:51:35.290Z,62.15
2016-03-01T12:52:35.308Z,62.24
2016-03-01T12:53:35.326Z,62.72
2016-03-01T12:54:35.329Z,62.72